createdAt,value
2022-08-18T00:01:16.493Z,98405.38
2022-08-18T00:03:56.764Z,98408.88
2022-08-18T00:06:31.080Z,98407.22
2022-08-18T00:09:01.478Z,98414.72
2022-08-18T00:11:40.994Z,98425.81
2022-08-18T00:14:21.465Z,98419.22
2022-08-18T00:16:52.603Z,98422.81
2022-08-18T00:19:20.275Z,98424.03
2022-08-18T00:22:07.750Z,98419.56
2022-08-18T00:24:35.050Z,98413.63
2022-08-18T00:27:02.193Z,98408.22
2022-08-18T00:29:29.074Z,98404.69
2022-08-18T00:31:55.954Z,98418.13
2022-08-18T00:34:22.839Z,98417.44
2022-08-18T00:36:50.227Z,98412.38
2022-08-18T00:39:17.340Z,98417.53
2022-08-18T00:41:44.176Z,98418.72
2022-08-18T00:44:11.030Z,98411.28
2022-08-18T00:46:38.323Z,98412.09
2022-08-18T00:49:05.913Z,98414.88
2022-08-18T00:51:44.789Z,98413.69
2022-08-18T00:54:32.641Z,98409.28
2022-08-18T00:57:04.598Z,98412.44
2022-08-18T00:59:42.379Z,98409.59
2022-08-18T01:02:20.121Z,98402.09
2022-08-18T01:04:59.831Z,98407.25
2022-08-18T01:07:45.034Z,98409.94
2022-08-18T01:10:20.381Z,98420.97
2022-08-18T01:12:54.532Z,98419.31
2022-08-18T01:15:29.132Z,98420.31
2022-08-18T01:18:20.839Z,98416.34
2022-08-18T01:21:34.743Z,98412.81
2022-08-18T01:24:07.313Z,98415.63
2022-08-18T01:26:45.660Z,98412.53
2022-08-18T01:29:18.763Z,98411.00
2022-08-18T01:31:56.386Z,98405.13
2022-08-18T01:34:27.433Z,98417.72
2022-08-18T01:36:55.611Z,98416.13
2022-08-18T01:41:24.148Z,98404.28
2022-08-18T01:42:12.283Z,98410.06
2022-08-18T01:44:41.599Z,98404.53
2022-08-18T01:47:12.515Z,98397.84
2022-08-18T01:49:43.950Z,98400.94
2022-08-18T01:52:21.360Z,98390.25
2022-08-18T01:54:50.319Z,98392.47
2022-08-18T01:57:20.509Z,98396.25
2022-08-18T01:59:47.532Z,98396.84
2022-08-18T02:02:20.335Z,98398.41
2022-08-18T02:04:47.494Z,98396.44
2022-08-18T02:07:14.935Z,98400.00
2022-08-18T02:09:44.110Z,98402.34
2022-08-18T02:12:12.770Z,98398.41
2022-08-18T02:14:40.491Z,98403.06
2022-08-18T02:17:11.114Z,98396.97
2022-08-18T02:19:43.918Z,98403.66
2022-08-18T02:22:14.208Z,98392.63
2022-08-18T02:24:41.491Z,98395.59
2022-08-18T02:27:11.348Z,98400.72
2022-08-18T02:29:38.948Z,98397.47
2022-08-18T02:32:08.617Z,98398.88
2022-08-18T02:34:36.649Z,98398.94
2022-08-18T02:37:04.584Z,98389.53
2022-08-18T02:39:37.837Z,98385.19
2022-08-18T02:42:09.117Z,98387.53
2022-08-18T02:44:36.545Z,98378.97
2022-08-18T02:47:03.682Z,98372.03
2022-08-18T02:49:30.488Z,98373.56
2022-08-18T02:51:57.690Z,98371.88
2022-08-18T02:54:26.189Z,98368.28
2022-08-18T02:56:53.535Z,98369.78
2022-08-18T02:59:24.753Z,98367.03
2022-08-18T03:01:55.255Z,98361.53
2022-08-18T03:04:29.521Z,98355.28
2022-08-18T03:07:05.079Z,98351.25
2022-08-18T03:09:34.416Z,98356.66
2022-08-18T03:12:02.321Z,98351.91
2022-08-18T03:14:29.961Z,98349.22
2022-08-18T03:16:57.300Z,98356.78
2022-08-18T03:19:28.337Z,98347.78
2022-08-18T03:21:59.625Z,98354.91
2022-08-18T03:24:32.517Z,98346.66
2022-08-18T03:27:01.544Z,98343.44
2022-08-18T03:29:32.486Z,98345.75
2022-08-18T03:32:02.266Z,98341.09
2022-08-18T03:34:29.773Z,98341.91
2022-08-18T03:36:56.675Z,98334.75
2022-08-18T03:39:25.035Z,98330.06
2022-08-18T03:41:59.472Z,98324.91
2022-08-18T03:44:31.007Z,98324.59
2022-08-18T03:46:58.789Z,98315.91
2022-08-18T03:49:26.747Z,98320.72
2022-08-18T03:51:54.440Z,98312.91
2022-08-18T03:54:21.482Z,98308.91
2022-08-18T03:56:49.404Z,98310.81
2022-08-18T03:59:21.971Z,98308.72
2022-08-18T04:01:51.777Z,98312.66
2022-08-18T04:04:26.410Z,98311.44
2022-08-18T04:07:06.585Z,98313.38
2022-08-18T04:09:35.653Z,98327.91
2022-08-18T04:12:16.595Z,98328.63
2022-08-18T04:14:49.165Z,98335.69
2022-08-18T04:17:25.210Z,98335.19
2022-08-18T04:19:56.721Z,98339.00
2022-08-18T04:22:24.950Z,98340.59
2022-08-18T04:24:52.053Z,98337.91
2022-08-18T04:27:21.246Z,98341.03
2022-08-18T04:29:49.082Z,98341.09
2022-08-18T04:32:16.301Z,98342.94
2022-08-18T04:34:43.601Z,98344.50
2022-08-18T04:37:10.920Z,98352.88
2022-08-18T04:39:38.187Z,98350.66
2022-08-18T04:42:05.807Z,98348.63
2022-08-18T04:44:32.696Z,98354.53
2022-08-18T04:47:01.702Z,98349.38
2022-08-18T04:49:28.595Z,98362.81
2022-08-18T04:52:36.965Z,98364.34
2022-08-18T04:55:02.909Z,98369.78
2022-08-18T04:57:33.671Z,98380.78
2022-08-18T05:00:02.772Z,98390.28
2022-08-18T05:02:30.092Z,98396.56
2022-08-18T05:04:56.969Z,98394.13
2022-08-18T05:07:24.036Z,98390.94
2022-08-18T05:09:54.053Z,98396.09
2022-08-18T05:12:22.840Z,98402.03
2022-08-18T05:14:56.735Z,98407.22
2022-08-18T05:17:29.016Z,98396.66
2022-08-18T05:20:03.576Z,98390.00
2022-08-18T05:22:36.950Z,98393.59
2022-08-18T05:25:04.604Z,98386.50
2022-08-18T05:27:38.409Z,98384.91
2022-08-18T05:30:07.367Z,98384.47
2022-08-18T05:32:48.147Z,98380.16
2022-08-18T05:35:25.946Z,98377.50
2022-08-18T05:38:26.472Z,98366.91
2022-08-18T05:41:07.903Z,98363.34
2022-08-18T05:43:52.160Z,98369.16
2022-08-18T05:46:24.939Z,98352.63
2022-08-18T05:48:51.809Z,98360.44
2022-08-18T05:51:32.956Z,98354.94
2022-08-18T05:54:20.801Z,98351.81
2022-08-18T05:56:51.701Z,98350.28
2022-08-18T05:59:32.463Z,98344.19
2022-08-18T06:02:31.395Z,98344.38
2022-08-18T06:05:14.569Z,98346.94
2022-08-18T06:07:57.123Z,98337.63
2022-08-18T06:10:25.257Z,98345.13
2022-08-18T06:13:02.707Z,98353.38
2022-08-18T06:16:07.535Z,98347.19
2022-08-18T06:19:16.347Z,98349.69
2022-08-18T06:22:03.841Z,98356.13
2022-08-18T06:25:06.803Z,98352.28
2022-08-18T06:27:59.452Z,98357.50
2022-08-18T06:31:40.721Z,98364.41
2022-08-18T06:34:33.903Z,98372.47
2022-08-18T06:37:23.637Z,98382.41
2022-08-18T06:39:52.835Z,98376.28
2022-08-18T06:42:30.531Z,98381.44
2022-08-18T06:45:12.761Z,98389.75
2022-08-18T06:47:53.786Z,98387.81
2022-08-18T06:50:36.430Z,98390.22
2022-08-18T06:53:18.942Z,98386.34
2022-08-18T06:55:56.206Z,98388.28
2022-08-18T06:58:30.638Z,98391.44
2022-08-18T07:01:05.747Z,98399.31
2022-08-18T07:03:49.285Z,98395.75
2022-08-18T07:06:22.265Z,98394.91
2022-08-18T07:08:53.534Z,98400.34
2022-08-18T07:11:43.172Z,98403.47
2022-08-18T07:14:24.376Z,98408.19
2022-08-18T07:17:06.198Z,98423.94
2022-08-18T07:19:33.608Z,98426.31
2022-08-18T07:22:18.439Z,98434.97
2022-08-18T07:24:56.058Z,98436.91
2022-08-18T07:27:49.250Z,98438.47
2022-08-18T07:30:21.790Z,98439.66
2022-08-18T07:33:06.130Z,98435.66
2022-08-18T07:35:57.084Z,98434.03
2022-08-18T07:38:43.482Z,98432.09
2022-08-18T07:41:36.667Z,98434.44
2022-08-18T07:44:38.630Z,98433.22
2022-08-18T07:47:18.892Z,98439.53
2022-08-18T07:50:15.736Z,98430.47
2022-08-18T07:53:08.347Z,98437.13
2022-08-18T07:55:36.667Z,98439.47
2022-08-18T07:58:56.355Z,98435.97
2022-08-18T08:01:40.823Z,98445.47
2022-08-18T08:04:26.651Z,98449.75
2022-08-18T08:07:30.021Z,98451.19
2022-08-18T08:10:36.919Z,98442.50
2022-08-18T08:13:10.212Z,98446.56
2022-08-18T08:16:02.483Z,98432.84
2022-08-18T08:18:35.418Z,98429.75
2022-08-18T08:21:10.982Z,98436.47
2022-08-18T08:24:05.706Z,98436.53
2022-08-18T08:27:03.483Z,98436.94
2022-08-18T08:29:51.207Z,98441.28
2022-08-18T08:32:59.230Z,98439.84
2022-08-18T08:35:48.745Z,98444.59
2022-08-18T08:38:42.890Z,98434.47
2022-08-18T08:41:20.275Z,98436.09
2022-08-18T08:44:30.005Z,98431.47
2022-08-18T08:47:21.819Z,98429.38
2022-08-18T08:50:01.143Z,98430.31
2022-08-18T08:52:43.626Z,98432.69
2022-08-18T08:55:50.616Z,98431.88
2022-08-18T08:58:29.363Z,98428.34
2022-08-18T09:00:58.222Z,98426.66
2022-08-18T09:04:17.315Z,98425.13
2022-08-18T09:07:00.452Z,98415.72
2022-08-18T09:09:50.348Z,98403.88
2022-08-18T09:12:44.738Z,98391.25
2022-08-18T09:15:37.715Z,98386.13
2022-08-18T09:18:37.769Z,98382.56
2022-08-18T09:21:52.453Z,98368.78
2022-08-18T09:24:38.827Z,98366.78
2022-08-18T09:28:00.134Z,98382.19
2022-08-18T09:31:02.382Z,98400.41
2022-08-18T09:33:44.385Z,98395.28
2022-08-18T09:36:35.200Z,98403.91
2022-08-18T09:42:49.836Z,98410.59
2022-08-18T09:48:34.180Z,98414.94
2022-08-18T09:51:17.507Z,98418.50
2022-08-18T09:53:52.227Z,98423.28
2022-08-18T09:56:53.882Z,98429.19
2022-08-18T09:59:35.049Z,98431.97
2022-08-18T10:02:29.900Z,98435.13
2022-08-18T10:05:19.231Z,98435.13
2022-08-18T10:07:58.046Z,98442.22
2022-08-18T10:14:03.139Z,98441.06
2022-08-18T10:17:13.470Z,98436.38
2022-08-18T10:20:09.529Z,98422.53
2022-08-18T10:22:55.363Z,98411.84
2022-08-18T10:25:37.107Z,98409.06
2022-08-18T10:28:07.838Z,98411.44
2022-08-18T10:34:16.834Z,98387.72
2022-08-18T10:36:48.089Z,98383.78
2022-08-18T10:39:46.568Z,98380.19
2022-08-18T10:42:40.518Z,98364.31
2022-08-18T10:45:34.365Z,98354.00
2022-08-18T10:48:24.280Z,98369.53
2022-08-18T10:54:50.954Z,98364.50
2022-08-18T10:57:53.913Z,98370.09
2022-08-18T11:00:27.690Z,98355.69
2022-08-18T11:03:51.152Z,98349.81
2022-08-18T11:06:26.826Z,98341.84
2022-08-18T11:09:01.325Z,98349.44
2022-08-18T11:11:52.776Z,98346.06
2022-08-18T11:18:17.465Z,98364.91
2022-08-18T11:20:47.392Z,98359.78
2022-08-18T11:23:17.874Z,98346.47
2022-08-18T11:25:45.450Z,98353.81
2022-08-18T11:28:30.207Z,98353.41
2022-08-18T11:30:59.383Z,98348.91
2022-08-18T11:33:28.005Z,98344.09
2022-08-18T11:36:01.379Z,98349.56
2022-08-18T11:38:31.254Z,98340.56
2022-08-18T11:41:47.868Z,98344.31
2022-08-18T11:44:25.085Z,98331.34
2022-08-18T11:47:09.644Z,98333.16
2022-08-18T11:49:37.351Z,98325.94
2022-08-18T11:52:34.563Z,98325.84
2022-08-18T11:55:16.375Z,98333.47
2022-08-18T11:57:56.209Z,98318.22
2022-08-18T12:00:53.494Z,98320.88
2022-08-18T12:03:42.376Z,98317.75
2022-08-18T12:06:31.557Z,98309.09
2022-08-18T12:09:24.429Z,98305.78
2022-08-18T12:12:33.182Z,98296.22
2022-08-18T12:18:28.475Z,98290.75
2022-08-18T12:20:58.931Z,98286.28
2022-08-18T12:23:30.088Z,98295.88
2022-08-18T12:26:07.184Z,98287.41
2022-08-18T12:28:53.825Z,98293.84
2022-08-18T12:31:47.594Z,98288.41
2022-08-18T12:34:18.025Z,98285.88
2022-08-18T12:36:58.736Z,98289.78
2022-08-18T12:39:25.559Z,98283.91
2022-08-18T12:42:33.910Z,98295.19
2022-08-18T12:45:24.582Z,98275.78
2022-08-18T12:47:57.115Z,98274.94
2022-08-18T12:50:31.875Z,98286.28
2022-08-18T12:53:09.185Z,98276.94
2022-08-18T12:58:43.527Z,98276.75
2022-08-18T13:01:13.765Z,98270.16
2022-08-18T13:04:01.341Z,98271.41
2022-08-18T13:07:00.179Z,98260.41
2022-08-18T13:09:52.737Z,98252.31
2022-08-18T13:12:25.451Z,98241.13
2022-08-18T13:14:54.913Z,98237.91
2022-08-18T13:17:33.153Z,98235.56
2022-08-18T13:20:29.475Z,98224.44
2022-08-18T13:22:56.321Z,98222.91
2022-08-18T13:25:32.761Z,98225.66
2022-08-18T13:28:06.176Z,98213.81
2022-08-18T13:30:35.949Z,98214.38
2022-08-18T13:33:53.585Z,98201.56
2022-08-18T13:35:54.783Z,98197.31
2022-08-18T13:38:27.114Z,98197.16
2022-08-18T13:40:59.327Z,98188.97
2022-08-18T13:43:42.060Z,98199.34
2022-08-18T13:46:19.668Z,98193.09
2022-08-18T13:48:51.270Z,98197.59
2022-08-18T13:51:24.655Z,98195.97
2022-08-18T13:54:14.552Z,98199.50
2022-08-18T13:56:39.799Z,98198.63
2022-08-18T13:59:07.276Z,98194.47
2022-08-18T14:01:44.914Z,98201.44
2022-08-18T14:04:22.731Z,98207.38
2022-08-18T14:06:57.861Z,98203.06
2022-08-18T14:09:38.062Z,98195.50
2022-08-18T14:12:15.866Z,98192.03
2022-08-18T14:14:52.625Z,98190.47
2022-08-18T14:17:24.702Z,98191.00
2022-08-18T14:20:15.214Z,98188.13
2022-08-18T14:23:11.190Z,98184.84
2022-08-18T14:25:57.439Z,98179.94
2022-08-18T14:28:28.809Z,98189.16
2022-08-18T14:30:59.070Z,98186.94
2022-08-18T14:33:49.941Z,98188.22
2022-08-18T14:36:17.283Z,98190.25
2022-08-18T14:38:45.237Z,98193.81
2022-08-18T14:41:14.882Z,98202.53
2022-08-18T14:44:10.373Z,98196.53
2022-08-18T14:46:34.805Z,98201.44
2022-08-18T14:49:03.894Z,98193.56
2022-08-18T14:51:33.662Z,98192.75
2022-08-18T14:54:02.171Z,98190.84
2022-08-18T14:56:29.647Z,98198.53
2022-08-18T14:59:02.129Z,98187.91
2022-08-18T15:01:29.052Z,98187.28
2022-08-18T15:04:19.230Z,98200.75
2022-08-18T15:06:55.701Z,98197.41
2022-08-18T15:09:27.135Z,98196.81
2022-08-18T15:11:56.642Z,98199.59
2022-08-18T15:14:33.130Z,98196.06
2022-08-18T15:17:11.728Z,98199.69
2022-08-18T15:19:59.922Z,98197.63
2022-08-18T15:22:46.369Z,98208.22
2022-08-18T15:25:33.877Z,98207.91
2022-08-18T15:28:00.922Z,98204.44
2022-08-18T15:30:28.262Z,98201.63
2022-08-18T15:32:55.583Z,98207.69
2022-08-18T15:35:22.712Z,98208.97
2022-08-18T15:37:51.474Z,98213.75
2022-08-18T15:40:31.161Z,98205.19
2022-08-18T15:43:09.999Z,98214.84
2022-08-18T15:45:56.488Z,98208.91
2022-08-18T15:48:28.552Z,98208.09
2022-08-18T15:50:56.426Z,98210.53
2022-08-18T15:53:29.975Z,98209.31
2022-08-18T15:55:57.884Z,98210.91
2022-08-18T15:58:27.011Z,98196.63
2022-08-18T16:00:56.401Z,98198.19
2022-08-18T16:03:25.815Z,98207.19
2022-08-18T16:05:55.637Z,98198.88
2022-08-18T16:08:25.545Z,98205.25
2022-08-18T16:10:54.502Z,98204.94
2022-08-18T16:13:24.418Z,98208.88
2022-08-18T16:15:51.289Z,98208.06
2022-08-18T16:18:22.897Z,98210.63
2022-08-18T16:20:52.583Z,98206.38
2022-08-18T16:23:20.220Z,98208.66
2022-08-18T16:25:47.168Z,98203.63
2022-08-18T16:28:14.040Z,98204.53
2022-08-18T16:30:41.489Z,98204.25
2022-08-18T16:33:08.676Z,98198.81
2022-08-18T16:35:37.263Z,98203.16
2022-08-18T16:38:09.170Z,98199.28
2022-08-18T16:40:37.727Z,98200.97
2022-08-18T16:43:05.928Z,98198.31
2022-08-18T16:45:36.037Z,98198.38
2022-08-18T16:48:03.863Z,98197.63
2022-08-18T16:50:38.368Z,98198.50
2022-08-18T16:53:05.682Z,98202.53
2022-08-18T16:55:32.817Z,98203.00
2022-08-18T16:58:18.218Z,98204.63
2022-08-18T17:01:03.571Z,98205.81
2022-08-18T17:03:49.399Z,98211.47
2022-08-18T17:06:28.919Z,98196.53
2022-08-18T17:09:09.808Z,98199.81
2022-08-18T17:11:39.427Z,98201.03
2022-08-18T17:14:26.028Z,98201.44
2022-08-18T17:16:55.098Z,98199.63
2022-08-18T17:19:25.398Z,98205.22
2022-08-18T17:21:53.194Z,98205.25
2022-08-18T17:24:25.816Z,98209.69
2022-08-18T17:27:26.324Z,98200.16
2022-08-18T17:30:00.585Z,98198.59
2022-08-18T17:32:50.783Z,98205.69
2022-08-18T17:35:42.832Z,98206.09
2022-08-18T17:38:49.420Z,98208.13
2022-08-18T17:41:21.399Z,98214.13
2022-08-18T17:43:48.315Z,98222.47
2022-08-18T17:46:28.499Z,98231.66
2022-08-18T17:49:11.018Z,98224.59
2022-08-18T17:51:56.754Z,98219.88
2022-08-18T17:54:41.852Z,98229.38
2022-08-18T17:57:23.758Z,98220.38
2022-08-18T18:00:11.449Z,98227.88
2022-08-18T18:02:45.068Z,98228.72
2022-08-18T18:05:17.328Z,98235.13
2022-08-18T18:07:50.264Z,98232.00
2022-08-18T18:11:04.429Z,98229.28
2022-08-18T18:13:33.357Z,98235.59
2022-08-18T18:16:35.553Z,98246.31
2022-08-18T18:19:13.161Z,98236.84
2022-08-18T18:22:00.242Z,98240.44
2022-08-18T18:24:36.906Z,98245.56
2022-08-18T18:27:33.356Z,98246.00
2022-08-18T18:30:16.348Z,98241.34
2022-08-18T18:33:02.605Z,98240.13
2022-08-18T18:35:54.052Z,98234.22
2022-08-18T18:38:46.387Z,98237.75
2022-08-18T18:41:13.153Z,98247.28
2022-08-18T18:43:49.121Z,98244.53
2022-08-18T18:46:22.975Z,98242.97
2022-08-18T18:49:28.105Z,98244.97
2022-08-18T18:52:25.338Z,98256.84
2022-08-18T18:55:17.402Z,98257.25
2022-08-18T18:58:12.437Z,98258.06
2022-08-18T19:00:53.967Z,98263.25
2022-08-18T19:03:45.925Z,98256.50
2022-08-18T19:06:30.040Z,98253.78
2022-08-18T19:09:17.364Z,98249.88
2022-08-18T19:12:09.281Z,98258.56
2022-08-18T19:14:46.837Z,98255.41
2022-08-18T19:18:04.290Z,98258.56
2022-08-18T19:20:44.184Z,98257.03
2022-08-18T19:23:57.365Z,98251.91
2022-08-18T19:26:31.320Z,98255.88
2022-08-18T19:29:13.589Z,98255.47
2022-08-18T19:32:13.406Z,98247.56
2022-08-18T19:34:51.413Z,98253.09
2022-08-18T19:37:31.192Z,98261.41
2022-08-18T19:40:25.889Z,98264.22
2022-08-18T19:42:58.688Z,98261.84
2022-08-18T19:45:46.308Z,98264.63
2022-08-18T19:48:29.647Z,98262.25
2022-08-18T19:51:47.745Z,98267.41
2022-08-18T19:54:50.747Z,98270.59
2022-08-18T19:57:23.652Z,98276.16
2022-08-18T20:00:12.911Z,98276.56
2022-08-18T20:03:23.301Z,98279.75
2022-08-18T20:06:14.223Z,98269.09
2022-08-18T20:09:17.224Z,98275.81
2022-08-18T20:12:09.049Z,98273.84
2022-08-18T20:14:42.368Z,98284.53
2022-08-18T20:17:09.240Z,98286.91
2022-08-18T20:19:36.052Z,98291.25
2022-08-18T20:22:16.224Z,98289.28
2022-08-18T20:25:29.932Z,98294.44
2022-08-18T20:27:59.746Z,98292.47
2022-08-18T20:31:01.816Z,98300.00
2022-08-18T20:33:36.140Z,98298.78
2022-08-18T20:36:20.276Z,98303.94
2022-08-18T20:38:54.449Z,98309.50
2022-08-18T20:41:30.479Z,98308.31
2022-08-18T20:44:21.917Z,98304.78
2022-08-18T20:47:17.765Z,98297.66
2022-08-18T20:50:33.695Z,98296.06
2022-08-18T20:53:26.087Z,98295.25
2022-08-18T20:56:43.225Z,98303.56
2022-08-18T20:59:40.794Z,98297.25
2022-08-18T21:02:35.188Z,98296.03
2022-08-18T21:05:02.112Z,98292.13
2022-08-18T21:07:37.899Z,98292.50
2022-08-18T21:10:24.195Z,98286.56
2022-08-18T21:12:55.399Z,98287.72
2022-08-18T21:15:29.805Z,98299.22
2022-08-18T21:18:20.478Z,98309.88
2022-08-18T21:20:49.985Z,98307.50
2022-08-18T21:23:33.711Z,98318.97
2022-08-18T21:26:14.063Z,98315.81
2022-08-18T21:28:48.113Z,98320.53
2022-08-18T21:31:43.922Z,98317.78
2022-08-18T21:34:31.469Z,98320.56
2022-08-18T21:37:02.185Z,98335.56
2022-08-18T21:39:29.034Z,98324.09
2022-08-18T21:41:58.237Z,98320.53
2022-08-18T21:44:41.885Z,98321.75
2022-08-18T21:47:26.241Z,98319.75
2022-08-18T21:50:10.893Z,98320.56
2022-08-18T21:52:54.416Z,98324.50
2022-08-18T21:55:49.917Z,98328.84
2022-08-18T21:58:38.751Z,98328.06
2022-08-18T22:01:29.822Z,98325.69
2022-08-18T22:04:16.527Z,98326.47
2022-08-18T22:06:50.501Z,98333.19
2022-08-18T22:09:42.295Z,98345.84
2022-08-18T22:12:42.938Z,98346.25
2022-08-18T22:15:28.790Z,98348.59
2022-08-18T22:18:08.173Z,98344.63
2022-08-18T22:20:56.250Z,98335.56
2022-08-18T22:23:55.649Z,98345.03
2022-08-18T22:26:37.177Z,98344.25
2022-08-18T22:29:09.702Z,98333.97
2022-08-18T22:31:44.909Z,98336.38
2022-08-18T22:34:18.121Z,98339.91
2022-08-18T22:37:16.704Z,98349.78
2022-08-18T22:39:53.599Z,98346.63
2022-08-18T22:42:28.113Z,98341.06
2022-08-18T22:44:58.042Z,98336.75
2022-08-18T22:47:29.320Z,98334.75
2022-08-18T22:49:57.339Z,98339.91
2022-08-18T22:52:40.744Z,98344.25
2022-08-18T22:55:14.033Z,98346.59
2022-08-18T22:57:42.871Z,98341.06
2022-08-18T23:00:19.030Z,98345.03
2022-08-18T23:02:47.747Z,98349.00
2022-08-18T23:05:14.949Z,98355.31
2022-08-18T23:07:42.639Z,98345.41
2022-08-18T23:10:14.004Z,98339.09
2022-08-18T23:12:47.388Z,98343.44
2022-08-18T23:15:17.907Z,98336.75
2022-08-18T23:17:45.242Z,98345.03
2022-08-18T23:20:19.245Z,98334.75
2022-08-18T23:22:47.877Z,98340.28
2022-08-18T23:25:15.865Z,98337.53
2022-08-18T23:27:43.291Z,98332.38
2022-08-18T23:30:12.215Z,98330.78
2022-08-18T23:32:39.069Z,98324.47
2022-08-18T23:35:06.706Z,98329.59
2022-08-18T23:37:33.540Z,98331.19
2022-08-18T23:40:00.514Z,98333.16
2022-08-18T23:42:27.565Z,98341.00
2022-08-18T23:45:03.627Z,98341.34
2022-08-18T23:47:30.693Z,98345.31
2022-08-18T23:49:57.749Z,98341.75
2022-08-18T23:52:24.673Z,98345.28
2022-08-18T23:54:51.735Z,98340.19
2022-08-18T23:57:18.595Z,98350.84
2022-08-18T23:59:45.416Z,98348.47
